Time;durP1;ratioP1;P1;durP2;ratioP2;P2;SDS_P1;SDS_P2;PMS_P1;PMS_P2;Temp;Humidity;BMP_temperature;BMP_pressure;BME280_temperature;BME280_humidity;BME280_pressure;Samples;Min_cycle;Max_cycle;Signal;HPM_P1;HPM_P2
2021/11/16 00:00:24;;;;;;;35.70;18.75;;;6.60;99.90;;;;;;5044402;28;20380;-83
2021/11/16 00:02:50;;;;;;;34.08;18.60;;;6.60;99.90;;;;;;5034063;28;20024;-84
2021/11/16 00:05:16;;;;;;;34.72;19.98;;;6.60;99.90;;;;;;5038304;28;20373;-84
2021/11/16 00:07:42;;;;;;;41.05;22.77;;;6.60;99.90;;;;;;5041023;28;20053;-83
2021/11/16 00:10:10;;;;;;;46.13;25.30;;;6.60;99.90;;;;;;5032369;28;20030;-84
2021/11/16 00:12:37;;;;;;;38.55;22.58;;;6.50;99.90;;;;;;5043539;28;20137;-84
2021/11/16 00:15:05;;;;;;;39.47;22.00;;;6.60;99.90;;;;;;5035838;28;20029;-84
2021/11/16 00:17:31;;;;;;;36.00;20.70;;;6.60;99.90;;;;;;5048548;28;20123;-84
2021/11/16 00:19:58;;;;;;;37.60;20.58;;;6.60;99.90;;;;;;5051362;28;20029;-84
2021/11/16 00:22:24;;;;;;;33.90;18.75;;;6.60;99.90;;;;;;5038124;28;20026;-83
2021/11/16 00:27:35;;;;;;;32.85;19.10;;;6.60;99.90;;;;;;5044166;28;20040;-85
2021/11/16 00:30:01;;;;;;;32.15;19.13;;;6.50;99.90;;;;;;5035615;28;20026;-84
2021/11/16 00:32:27;;;;;;;35.25;20.77;;;6.60;99.90;;;;;;5050402;28;20088;-83
2021/11/16 00:34:53;;;;;;;32.35;19.63;;;6.60;99.90;;;;;;5045379;28;20057;-85
2021/11/16 00:37:25;;;;;;;32.58;18.58;;;6.60;99.90;;;;;;5031355;28;20018;-84
2021/11/16 00:39:56;;;;;;;39.10;21.45;;;6.60;99.90;;;;;;5031579;28;20026;-84
2021/11/16 00:42:23;;;;;;;39.70;23.33;;;6.60;99.90;;;;;;5032227;28;20029;-84
2021/11/16 00:44:50;;;;;;;36.63;21.40;;;6.50;99.90;;;;;;5031049;28;20033;-84
2021/11/16 00:47:16;;;;;;;37.13;21.00;;;6.50;99.90;;;;;;5040777;28;20021;-85
2021/11/16 00:49:42;;;;;;;38.20;20.95;;;6.50;99.90;;;;;;5037231;28;20112;-85
2021/11/16 00:52:09;;;;;;;34.28;20.13;;;6.50;99.90;;;;;;5034486;28;20026;-85
2021/11/16 00:54:35;;;;;;;36.80;19.77;;;6.60;99.90;;;;;;5050360;28;20053;-85
2021/11/16 00:57:01;;;;;;;33.75;19.52;;;6.60;99.90;;;;;;5050256;28;20061;-85
2021/11/16 00:59:27;;;;;;;33.05;19.42;;;6.60;99.90;;;;;;5039687;28;20049;-85
2021/11/16 01:01:53;;;;;;;32.60;18.15;;;6.60;99.90;;;;;;5046084;28;20028;-84
2021/11/16 01:04:19;;;;;;;36.90;20.45;;;6.60;99.90;;;;;;5048841;28;20029;-85
2021/11/16 01:06:45;;;;;;;34.25;19.40;;;6.60;99.90;;;;;;5037722;28;20397;-85
2021/11/16 01:09:11;;;;;;;30.70;18.73;;;6.60;99.90;;;;;;5040946;28;20033;-85
2021/11/16 01:11:37;;;;;;;34.28;18.92;;;6.60;99.90;;;;;;5042694;28;20135;-85
2021/11/16 01:14:05;;;;;;;33.42;18.83;;;6.60;99.90;;;;;;5051348;28;20056;-85
2021/11/16 01:16:31;;;;;;;35.15;19.52;;;6.50;99.90;;;;;;5018726;28;20546;-85
2021/11/16 01:18:59;;;;;;;33.67;18.58;;;6.60;99.90;;;;;;5042962;28;20021;-85
2021/11/16 01:21:25;;;;;;;29.73;17.27;;;6.60;99.90;;;;;;5032957;28;20061;-85
2021/11/16 01:23:50;;;;;;;36.63;20.85;;;6.50;99.90;;;;;;5045744;28;20052;-85
2021/11/16 01:26:16;;;;;;;34.45;19.08;;;6.50;99.90;;;;;;5032616;28;20067;-85
2021/11/16 01:28:42;;;;;;;32.42;19.80;;;6.50;99.90;;;;;;5035914;28;20021;-85
2021/11/16 01:31:08;;;;;;;37.70;20.50;;;6.50;99.90;;;;;;5040769;28;20045;-85
2021/11/16 01:33:42;;;;;;;32.95;18.95;;;6.50;99.90;;;;;;5043146;28;20103;-85
2021/11/16 01:36:13;;;;;;;37.58;22.10;;;6.50;99.90;;;;;;5031963;28;20033;-85
2021/11/16 01:38:41;;;;;;;45.13;23.88;;;6.50;99.90;;;;;;5034168;28;20025;-85
2021/11/16 01:41:07;;;;;;;37.15;21.45;;;6.50;99.90;;;;;;5040755;28;20025;-85
2021/11/16 01:43:33;;;;;;;35.30;20.42;;;6.50;99.90;;;;;;5041822;28;20094;-85
2021/11/16 01:46:01;;;;;;;36.65;20.52;;;6.50;99.90;;;;;;5016916;28;20034;-85
2021/11/16 01:48:29;;;;;;;34.28;20.15;;;6.50;99.90;;;;;;5046193;28;20129;-85
2021/11/16 01:50:56;;;;;;;35.67;20.42;;;6.50;99.90;;;;;;5033157;28;20034;-85
2021/11/16 01:53:22;;;;;;;34.20;19.33;;;6.50;99.90;;;;;;5030207;28;20036;-83
2021/11/16 01:55:48;;;;;;;35.55;19.27;;;6.50;99.90;;;;;;5029426;28;20029;-85
2021/11/16 01:58:15;;;;;;;33.05;18.90;;;6.50;99.90;;;;;;5030473;28;20400;-85
2021/11/16 02:00:43;;;;;;;32.63;18.23;;;6.50;99.90;;;;;;5047428;28;20025;-84
2021/11/16 02:03:11;;;;;;;34.63;19.73;;;6.50;99.90;;;;;;5034611;28;20063;-84
2021/11/16 02:05:41;;;;;;;31.77;18.33;;;6.50;99.90;;;;;;5034938;28;20025;-85
2021/11/16 02:08:08;;;;;;;32.92;18.83;;;6.50;99.90;;;;;;5033925;28;20026;-85
2021/11/16 02:10:35;;;;;;;31.08;18.52;;;6.50;99.90;;;;;;5033675;28;20025;-85
2021/11/16 02:13:02;;;;;;;33.63;18.75;;;6.60;99.90;;;;;;5032862;28;20036;-84
2021/11/16 02:15:28;;;;;;;33.25;18.73;;;6.50;99.90;;;;;;5033058;28;20091;-83
2021/11/16 02:17:56;;;;;;;31.90;18.45;;;6.50;99.90;;;;;;5030565;28;20449;-85
2021/11/16 02:20:22;;;;;;;34.72;19.80;;;6.50;99.90;;;;;;5047074;28;20032;-84
2021/11/16 02:22:51;;;;;;;31.13;17.55;;;6.50;99.90;;;;;;5027831;28;20493;-86
2021/11/16 02:25:17;;;;;;;33.38;18.02;;;6.50;99.90;;;;;;5026770;28;20477;-85
2021/11/16 02:27:43;;;;;;;34.97;19.42;;;6.50;99.90;;;;;;5034198;28;20097;-84
2021/11/16 02:30:09;;;;;;;33.58;18.40;;;6.50;99.90;;;;;;5030226;28;20018;-85
2021/11/16 02:32:35;;;;;;;31.00;18.20;;;6.50;99.90;;;;;;5033212;28;20512;-85
2021/11/16 02:35:01;;;;;;;35.33;19.50;;;6.40;99.90;;;;;;5032172;28;20032;-86
2021/11/16 02:37:32;;;;;;;34.45;20.20;;;6.40;99.90;;;;;;5032976;28;20024;-85
2021/11/16 02:40:00;;;;;;;34.28;19.00;;;6.50;99.90;;;;;;5032957;28;20087;-86
2021/11/16 02:42:28;;;;;;;30.48;17.80;;;6.50;99.90;;;;;;5033070;28;20033;-86
2021/11/16 02:44:57;;;;;;;32.38;18.00;;;6.50;99.90;;;;;;5015267;28;20041;-86
2021/11/16 02:47:26;;;;;;;33.42;18.90;;;6.50;99.90;;;;;;5033398;28;20060;-84
2021/11/16 02:49:54;;;;;;;34.92;19.40;;;6.50;99.90;;;;;;5030637;28;20458;-85
2021/11/16 02:52:23;;;;;;;34.80;20.23;;;6.50;99.90;;;;;;5032522;28;20029;-84
2021/11/16 02:54:51;;;;;;;33.97;19.85;;;6.50;99.90;;;;;;5023817;28;20029;-84
2021/11/16 02:57:17;;;;;;;37.95;21.60;;;6.50;99.90;;;;;;5026401;28;20026;-84
2021/11/16 02:59:43;;;;;;;36.42;20.50;;;6.50;99.90;;;;;;5033048;28;20029;-85
2021/11/16 03:02:10;;;;;;;33.65;20.17;;;6.50;99.90;;;;;;5032455;28;20052;-84
2021/11/16 03:04:39;;;;;;;34.13;19.90;;;6.40;99.90;;;;;;5032829;28;20032;-85
2021/11/16 03:07:05;;;;;;;33.33;18.27;;;6.40;99.90;;;;;;5033906;28;20013;-85
2021/11/16 03:09:34;;;;;;;32.05;17.65;;;6.40;99.90;;;;;;5048659;28;20409;-86
2021/11/16 03:12:01;;;;;;;35.47;18.98;;;6.40;99.90;;;;;;5051522;28;20033;-86
2021/11/16 03:14:33;;;;;;;34.25;18.27;;;6.50;99.90;;;;;;5039818;28;20025;-86
2021/11/16 03:17:00;;;;;;;32.97;18.23;;;6.40;99.90;;;;;;5024279;28;20016;-86
2021/11/16 03:19:26;;;;;;;34.65;19.45;;;6.40;99.90;;;;;;5035925;28;20037;-86
2021/11/16 03:21:56;;;;;;;36.78;19.00;;;6.40;99.90;;;;;;5032287;28;20097;-86
2021/11/16 03:24:32;;;;;;;35.03;20.48;;;6.40;99.90;;;;;;5033367;28;20112;-86
2021/11/16 03:27:02;;;;;;;34.78;19.60;;;6.50;99.90;;;;;;5030835;28;20024;-86
2021/11/16 03:29:29;;;;;;;37.17;19.98;;;6.50;99.90;;;;;;5029378;28;20457;-85
2021/11/16 03:32:10;;;;;;;31.17;18.63;;;6.50;99.90;;;;;;5039753;28;20535;-85
2021/11/16 03:34:36;;;;;;;35.72;18.83;;;6.50;99.90;;;;;;5032096;28;20021;-85
2021/11/16 03:37:03;;;;;;;34.97;19.10;;;6.50;99.90;;;;;;5035674;28;20025;-85
2021/11/16 03:39:31;;;;;;;35.17;19.10;;;6.50;99.90;;;;;;5032804;28;20021;-83
2021/11/16 03:41:58;;;;;;;33.67;17.67;;;6.50;99.90;;;;;;5035006;28;20059;-85
2021/11/16 03:44:26;;;;;;;31.75;18.15;;;6.50;99.90;;;;;;5038588;28;20017;-84
2021/11/16 03:46:52;;;;;;;35.92;18.30;;;6.50;99.90;;;;;;5032060;28;20512;-84
2021/11/16 03:49:19;;;;;;;33.45;18.80;;;6.50;99.90;;;;;;5031495;28;20030;-85
2021/11/16 03:51:46;;;;;;;31.50;18.27;;;6.50;99.90;;;;;;5032041;28;20037;-85
2021/11/16 03:54:14;;;;;;;32.42;18.02;;;6.50;99.90;;;;;;5036922;28;20033;-85
2021/11/16 03:56:40;;;;;;;34.15;18.27;;;6.50;99.90;;;;;;5037116;28;20025;-84
2021/11/16 03:59:07;;;;;;;34.50;19.42;;;6.50;99.90;;;;;;5036078;28;20021;-84
2021/11/16 04:01:34;;;;;;;32.58;18.05;;;6.50;99.90;;;;;;5035465;28;20052;-84
2021/11/16 04:04:03;;;;;;;34.97;18.73;;;6.50;99.90;;;;;;5035905;28;20403;-83
2021/11/16 04:06:29;;;;;;;35.95;19.95;;;6.50;99.90;;;;;;5036290;28;20021;-84
2021/11/16 04:08:57;;;;;;;34.33;20.48;;;6.50;99.90;;;;;;5035969;28;20036;-84
2021/11/16 04:11:25;;;;;;;35.72;19.73;;;6.50;99.90;;;;;;5037096;28;20033;-85
2021/11/16 04:13:50;;;;;;;34.20;18.92;;;6.50;99.90;;;;;;5035883;28;20029;-85
2021/11/16 04:16:16;;;;;;;33.00;18.73;;;6.50;99.90;;;;;;5035854;28;20036;-85
2021/11/16 04:18:44;;;;;;;31.90;19.15;;;6.50;99.90;;;;;;5035886;28;20032;-85
2021/11/16 04:21:10;;;;;;;31.10;18.05;;;6.50;99.90;;;;;;5035538;28;20033;-85
2021/11/16 04:23:37;;;;;;;34.42;20.00;;;6.50;99.90;;;;;;5036648;28;20033;-85
2021/11/16 04:26:04;;;;;;;35.70;18.88;;;6.40;99.90;;;;;;5035691;28;20354;-84
2021/11/16 04:28:29;;;;;;;37.10;19.02;;;6.50;99.90;;;;;;5036480;28;20025;-85
2021/11/16 04:30:59;;;;;;;34.60;19.77;;;6.50;99.90;;;;;;5034969;28;20056;-85
2021/11/16 04:33:26;;;;;;;35.05;19.60;;;6.50;99.90;;;;;;5035133;28;20045;-85
2021/11/16 04:35:52;;;;;;;31.92;17.88;;;6.50;99.90;;;;;;5035534;28;20112;-85
2021/11/16 04:38:20;;;;;;;36.83;19.75;;;6.50;99.90;;;;;;5036318;28;20117;-84
2021/11/16 04:40:53;;;;;;;37.20;19.35;;;6.40;99.90;;;;;;5035325;28;20030;-85
2021/11/16 04:43:24;;;;;;;33.90;19.30;;;6.50;99.90;;;;;;5036740;28;20021;-85
2021/11/16 04:45:53;;;;;;;32.72;18.25;;;6.50;99.90;;;;;;5051874;28;20026;-84
2021/11/16 05:04:34;;;;;;;36.85;19.48;;;6.40;99.90;;;;;;5035958;28;20060;-85
2021/11/16 05:07:01;;;;;;;40.28;21.17;;;6.40;99.90;;;;;;5034900;28;20412;-86
2021/11/16 05:09:27;;;;;;;38.03;20.70;;;6.40;99.90;;;;;;5034498;28;20033;-85
2021/11/16 05:11:55;;;;;;;38.80;20.88;;;6.40;99.90;;;;;;5036068;28;20100;-85
2021/11/16 05:14:21;;;;;;;36.65;19.95;;;6.40;99.90;;;;;;5034712;28;20029;-86
2021/11/16 05:16:47;;;;;;;35.90;20.67;;;6.40;99.90;;;;;;5034724;28;20018;-86
2021/11/16 05:19:13;;;;;;;38.08;20.88;;;6.40;99.90;;;;;;5034712;28;20495;-85
2021/11/16 05:21:40;;;;;;;37.95;21.13;;;6.40;99.90;;;;;;5034593;28;20034;-86
2021/11/16 05:24:06;;;;;;;35.95;19.77;;;6.40;99.90;;;;;;5034513;28;20056;-86
2021/11/16 05:26:32;;;;;;;35.10;19.85;;;6.40;99.90;;;;;;5034888;28;20087;-85
2021/11/16 05:28:59;;;;;;;40.42;21.17;;;6.40;99.90;;;;;;5050772;28;20393;-86
2021/11/16 05:31:26;;;;;;;41.70;22.30;;;6.40;99.90;;;;;;5034515;28;20494;-86
2021/11/16 05:33:54;;;;;;;39.88;22.60;;;6.40;99.90;;;;;;5033352;28;20045;-86
2021/11/16 05:36:22;;;;;;;40.85;21.80;;;6.40;99.90;;;;;;5030930;28;20028;-85
2021/11/16 05:38:47;;;;;;;47.13;24.55;;;6.40;99.90;;;;;;5033158;28;20024;-85
2021/11/16 05:41:17;;;;;;;47.10;24.83;;;6.40;99.90;;;;;;5048358;28;20025;-84
2021/11/16 05:43:44;;;;;;;44.58;25.05;;;6.30;99.90;;;;;;5035448;28;20025;-85
2021/11/16 05:46:13;;;;;;;52.20;25.77;;;6.30;99.90;;;;;;5046283;28;20025;-85
2021/11/16 05:48:41;;;;;;;43.85;23.75;;;6.30;99.90;;;;;;5043219;28;20021;-85
2021/11/16 05:51:10;;;;;;;46.30;23.48;;;6.30;99.90;;;;;;5037749;28;20072;-85
2021/11/16 05:53:38;;;;;;;43.53;22.63;;;6.30;99.90;;;;;;5050801;28;20049;-86
2021/11/16 05:56:05;;;;;;;42.15;23.20;;;6.30;99.90;;;;;;5062624;28;20021;-86
2021/11/16 05:58:31;;;;;;;42.38;22.95;;;6.30;99.90;;;;;;5041547;28;20105;-85
2021/11/16 06:00:58;;;;;;;43.22;23.40;;;6.30;99.90;;;;;;5040040;28;20037;-86
2021/11/16 06:03:24;;;;;;;41.47;21.45;;;6.30;99.90;;;;;;5046778;28;20058;-85
2021/11/16 06:05:50;;;;;;;42.70;21.63;;;6.30;99.90;;;;;;5033980;28;20017;-87
2021/11/16 06:08:25;;;;;;;42.72;21.80;;;6.30;99.90;;;;;;5038958;28;20059;-86
2021/11/16 06:10:54;;;;;;;41.50;22.20;;;6.30;99.90;;;;;;5039723;28;20037;-85
2021/11/16 06:13:22;;;;;;;40.83;20.95;;;6.30;99.90;;;;;;5046551;28;20087;-86
2021/11/16 06:15:49;;;;;;;38.95;20.52;;;6.30;99.90;;;;;;5034695;28;20024;-87
2021/11/16 06:18:23;;;;;;;46.25;22.33;;;6.30;99.90;;;;;;5043908;28;20493;-86
2021/11/16 06:20:53;;;;;;;41.90;21.52;;;6.30;99.90;;;;;;5042374;28;20120;-85
2021/11/16 06:23:19;;;;;;;41.40;21.92;;;6.30;99.90;;;;;;5035431;28;20056;-84
2021/11/16 06:25:46;;;;;;;40.30;20.17;;;6.30;99.90;;;;;;5046852;28;20061;-85
2021/11/16 06:28:13;;;;;;;42.17;21.05;;;6.30;99.90;;;;;;5032136;28;20132;-87
2021/11/16 06:30:39;;;;;;;42.15;21.33;;;6.30;99.90;;;;;;5043075;28;20017;-86
2021/11/16 06:33:04;;;;;;;39.20;19.70;;;6.30;99.90;;;;;;5039734;28;20037;-87
2021/11/16 06:35:31;;;;;;;42.30;20.60;;;6.30;99.90;;;;;;5033926;28;20394;-86
2021/11/16 06:37:57;;;;;;;37.10;20.33;;;6.30;99.90;;;;;;5066451;28;20025;-86
2021/11/16 06:40:23;;;;;;;39.50;20.55;;;6.30;99.90;;;;;;5044786;28;20022;-86
2021/11/16 06:42:51;;;;;;;44.35;22.27;;;6.30;99.90;;;;;;5041098;28;20022;-86
2021/11/16 06:45:17;;;;;;;46.45;21.88;;;6.20;99.90;;;;;;5047787;28;20482;-86
2021/11/16 06:47:43;;;;;;;40.17;20.77;;;6.20;99.90;;;;;;5036442;28;20036;-86
2021/11/16 06:50:10;;;;;;;46.00;21.63;;;6.20;99.90;;;;;;5047559;28;20071;-86
2021/11/16 06:52:38;;;;;;;41.53;21.55;;;6.20;99.90;;;;;;5039973;28;20120;-86
2021/11/16 06:55:07;;;;;;;44.17;22.02;;;6.20;99.90;;;;;;5033700;28;20029;-86
2021/11/16 06:57:33;;;;;;;43.28;21.40;;;6.20;99.90;;;;;;5048334;28;20075;-86
2021/11/16 07:00:00;;;;;;;39.63;20.02;;;6.20;99.90;;;;;;5037010;28;20086;-85
2021/11/16 07:02:28;;;;;;;41.15;20.83;;;6.20;99.90;;;;;;5043705;28;20037;-85
2021/11/16 07:04:54;;;;;;;43.97;20.67;;;6.10;99.90;;;;;;5037433;28;20436;-87
2021/11/16 07:07:20;;;;;;;36.72;19.48;;;6.10;99.90;;;;;;5047911;28;20036;-87
2021/11/16 07:09:47;;;;;;;38.67;19.83;;;6.20;99.90;;;;;;5035731;28;20083;-86
2021/11/16 07:12:24;;;;;;;36.33;18.92;;;6.20;99.90;;;;;;5045529;28;20030;-86
2021/11/16 07:14:52;;;;;;;37.17;18.40;;;6.20;99.90;;;;;;5032208;28;20176;-86
2021/11/16 07:17:20;;;;;;;37.67;19.10;;;6.20;99.90;;;;;;5047423;28;20029;-86
2021/11/16 07:19:49;;;;;;;29.63;15.98;;;6.30;99.90;;;;;;5035635;28;20082;-87
2021/11/16 07:22:37;;;;;;;35.03;17.80;;;6.20;99.90;;;;;;5053596;28;20700;-86
2021/11/16 07:25:06;;;;;;;36.40;18.70;;;6.20;99.90;;;;;;5032701;28;20504;-85
2021/11/16 07:27:47;;;;;;;36.85;18.45;;;6.20;99.90;;;;;;5033302;28;20084;-88
2021/11/16 07:30:19;;;;;;;40.20;18.15;;;6.30;99.90;;;;;;5051848;28;20017;-86
2021/11/16 07:32:51;;;;;;;35.97;17.73;;;6.20;99.90;;;;;;5037405;28;20489;-86
2021/11/16 07:35:23;;;;;;;36.92;17.50;;;6.20;99.90;;;;;;5033279;28;20092;-86
2021/11/16 07:37:55;;;;;;;34.03;17.27;;;6.20;99.90;;;;;;5048408;28;20013;-85
2021/11/16 07:40:21;;;;;;;39.30;19.27;;;6.20;99.90;;;;;;5031473;28;20022;-85
2021/11/16 07:42:52;;;;;;;35.90;17.88;;;6.20;99.90;;;;;;5040810;28;20033;-85
2021/11/16 07:45:37;;;;;;;35.13;18.20;;;6.20;99.90;;;;;;5031810;28;20049;-85
2021/11/16 07:48:07;;;;;;;39.22;18.73;;;6.20;99.90;;;;;;5022383;28;20033;-86
2021/11/16 07:50:33;;;;;;;35.28;17.45;;;6.20;99.90;;;;;;5041744;28;20058;-85
2021/11/16 07:53:13;;;;;;;36.15;18.52;;;6.20;99.90;;;;;;5042050;28;20029;-85
2021/11/16 07:55:43;;;;;;;38.70;19.65;;;6.20;99.90;;;;;;5035439;28;20036;-85
2021/11/16 07:58:12;;;;;;;43.00;19.85;;;6.20;99.90;;;;;;5047403;28;20020;-85
2021/11/16 08:00:42;;;;;;;40.03;20.10;;;6.20;99.90;;;;;;5031488;28;20481;-85
2021/11/16 08:03:22;;;;;;;40.95;18.65;;;6.20;99.90;;;;;;5057896;28;20029;-85
2021/11/16 08:11:50;;;;;;;36.33;17.83;;;6.20;99.90;;;;;;5033150;28;20034;-85
2021/11/16 08:13:59;;;;;;;;;;;6.20;99.90;;;;;;5030192;28;20032;-85
2021/11/16 08:16:29;;;;;;;31.73;16.15;;;6.20;99.90;;;;;;5032978;28;19911;-86
2021/11/16 08:19:06;;;;;;;34.22;17.20;;;6.20;99.90;;;;;;5033300;28;20049;-85
2021/11/16 08:21:35;;;;;;;34.67;16.40;;;6.20;99.90;;;;;;5048519;28;20448;-86
2021/11/16 08:24:10;;;;;;;34.10;18.13;;;6.20;99.90;;;;;;5036579;28;20358;-86
2021/11/16 08:26:42;;;;;;;35.55;17.75;;;6.20;99.90;;;;;;5053639;28;20022;-86
2021/11/16 08:29:12;;;;;;;36.70;17.13;;;6.20;99.90;;;;;;5038296;28;20105;-87
2021/11/16 08:31:52;;;;;;;31.58;16.40;;;6.20;99.90;;;;;;5033507;28;20025;-87
2021/11/16 08:34:22;;;;;;;38.63;18.35;;;6.20;99.90;;;;;;5045213;28;20057;-86
2021/11/16 08:36:52;;;;;;;39.83;17.90;;;6.20;99.90;;;;;;5042754;28;20380;-87
2021/11/16 08:39:30;;;;;;;34.15;18.33;;;6.20;99.90;;;;;;5053975;28;20082;-86
2021/11/16 08:41:58;;;;;;;35.85;18.40;;;6.20;99.90;;;;;;5032680;28;20029;-86
2021/11/16 08:44:32;;;;;;;35.22;16.90;;;6.20;99.90;;;;;;5028178;28;20055;-86
2021/11/16 08:47:15;;;;;;;37.88;18.30;;;6.20;99.90;;;;;;5050353;28;20422;-86
2021/11/16 08:49:45;;;;;;;36.20;18.23;;;6.20;99.90;;;;;;5039302;28;20022;-87
2021/11/16 08:52:16;;;;;;;38.38;18.33;;;6.20;99.90;;;;;;5050236;28;20091;-86
2021/11/16 08:55:03;;;;;;;38.10;18.10;;;6.20;99.90;;;;;;5035166;28;20109;-87
2021/11/16 08:57:32;;;;;;;38.17;17.67;;;6.20;99.90;;;;;;5036305;28;20382;-87
2021/11/16 08:59:59;;;;;;;34.55;16.95;;;6.20;99.90;;;;;;5050903;28;20040;-85
2021/11/16 09:02:27;;;;;;;35.05;16.88;;;6.20;99.90;;;;;;5043669;28;20044;-85
2021/11/16 09:05:07;;;;;;;36.90;16.85;;;6.30;99.90;;;;;;5043309;28;20044;-87
2021/11/16 09:07:33;;;;;;;33.70;16.60;;;6.30;99.90;;;;;;5035965;28;20049;-87
2021/11/16 09:10:06;;;;;;;34.05;15.85;;;6.30;99.90;;;;;;5051469;28;20021;-86
2021/11/16 09:12:57;;;;;;;36.08;17.48;;;6.30;99.90;;;;;;5035606;28;20025;-87
2021/11/16 09:15:45;;;;;;;33.45;16.40;;;6.30;99.90;;;;;;5050613;28;20044;-86
2021/11/16 09:18:39;;;;;;;33.95;15.50;;;6.30;99.90;;;;;;5028559;28;20376;-87
2021/11/16 09:21:07;;;;;;;32.28;15.52;;;6.40;99.90;;;;;;5041577;28;20021;-87
2021/11/16 09:23:39;;;;;;;31.65;15.60;;;6.40;99.90;;;;;;5035028;28;20033;-87
2021/11/16 09:26:39;;;;;;;33.35;15.73;;;6.40;99.90;;;;;;5040217;28;20108;-87
2021/11/16 09:29:17;;;;;;;32.00;16.55;;;6.40;99.90;;;;;;5042744;28;20033;-87
2021/11/16 09:32:11;;;;;;;37.45;16.50;;;6.40;99.90;;;;;;5035534;28;20038;-87
2021/11/16 09:34:43;;;;;;;38.15;16.73;;;6.40;99.90;;;;;;5041262;28;20040;-87
2021/11/16 09:37:18;;;;;;;34.47;18.17;;;6.40;99.90;;;;;;5034253;28;20026;-87
2021/11/16 09:39:57;;;;;;;40.20;18.52;;;6.40;99.90;;;;;;5050644;28;20029;-87
2021/11/16 09:42:32;;;;;;;47.60;21.83;;;6.30;99.90;;;;;;5046172;28;20025;-87
2021/11/16 09:45:12;;;;;;;38.67;18.50;;;6.30;99.90;;;;;;5034016;28;20076;-87
2021/11/16 09:47:41;;;;;;;37.83;17.73;;;6.30;99.90;;;;;;5051346;28;20033;-87
2021/11/16 09:50:19;;;;;;;40.20;17.65;;;6.30;99.90;;;;;;5034107;28;20022;-86
2021/11/16 09:52:51;;;;;;;32.67;16.88;;;6.30;99.90;;;;;;5044840;28;20424;-86
2021/11/16 09:55:36;;;;;;;34.63;16.48;;;6.40;99.90;;;;;;5051873;28;20017;-86
2021/11/16 09:58:23;;;;;;;33.78;16.40;;;6.40;99.90;;;;;;5024862;28;20088;-86
2021/11/16 10:00:53;;;;;;;33.40;15.75;;;6.40;99.90;;;;;;5042744;28;20037;-87
2021/11/16 10:03:22;;;;;;;32.05;15.85;;;6.40;99.90;;;;;;5047300;28;20025;-87
2021/11/16 10:05:54;;;;;;;33.15;16.40;;;6.50;99.90;;;;;;5052956;28;20021;-86
2021/11/16 10:08:24;;;;;;;34.63;16.27;;;6.50;99.90;;;;;;5052840;28;20358;-85
2021/11/16 10:10:55;;;;;;;36.83;17.42;;;6.50;99.90;;;;;;5042835;28;20072;-86
2021/11/16 10:13:25;;;;;;;32.45;16.38;;;6.40;99.90;;;;;;5047623;28;20044;-85
2021/11/16 10:15:53;;;;;;;35.97;17.65;;;6.40;99.90;;;;;;5036716;28;20032;-86
2021/11/16 10:18:25;;;;;;;38.35;17.67;;;6.50;99.90;;;;;;5053452;28;20168;-86
2021/11/16 10:20:52;;;;;;;36.17;17.08;;;6.50;99.90;;;;;;5057813;28;20017;-86
2021/11/16 10:23:32;;;;;;;37.88;17.13;;;6.50;99.90;;;;;;5047771;28;20021;-86
2021/11/16 10:25:58;;;;;;;36.38;17.77;;;6.50;99.90;;;;;;5037884;28;20531;-86
2021/11/16 10:28:25;;;;;;;38.05;18.10;;;6.50;99.90;;;;;;5044908;28;20032;-86
2021/11/16 10:30:57;;;;;;;32.35;16.35;;;6.50;99.90;;;;;;5044526;28;20017;-86
2021/11/16 10:33:27;;;;;;;34.67;16.00;;;6.50;99.90;;;;;;5036310;28;20141;-86
2021/11/16 10:36:20;;;;;;;32.55;15.88;;;6.50;99.90;;;;;;5031764;28;20100;-87
2021/11/16 10:38:53;;;;;;;37.08;17.55;;;6.50;99.90;;;;;;5057201;28;20045;-86
2021/11/16 10:41:29;;;;;;;37.40;17.83;;;6.50;99.90;;;;;;5048019;28;20060;-86
2021/11/16 10:43:59;;;;;;;33.28;16.02;;;6.60;99.90;;;;;;5037872;28;20017;-86
2021/11/16 10:46:35;;;;;;;31.73;15.43;;;6.60;99.90;;;;;;5042828;28;20037;-85
2021/11/16 10:49:13;;;;;;;27.75;13.98;;;6.70;99.90;;;;;;5028679;28;20466;-86
2021/11/16 10:51:43;;;;;;;27.20;13.85;;;6.70;99.90;;;;;;5032031;28;20041;-85
2021/11/16 10:54:15;;;;;;;31.27;14.70;;;6.70;99.90;;;;;;5030901;28;20411;-85
2021/11/16 10:56:42;;;;;;;27.73;14.55;;;6.70;99.90;;;;;;5031398;28;20059;-87
2021/11/16 10:59:16;;;;;;;25.55;13.52;;;6.70;99.90;;;;;;5031259;28;20033;-86
2021/11/16 11:01:54;;;;;;;26.63;13.55;;;6.70;99.90;;;;;;5046559;28;20040;-84
2021/11/16 11:04:24;;;;;;;28.48;13.75;;;6.70;99.90;;;;;;5031679;28;20449;-85
2021/11/16 11:06:52;;;;;;;28.10;13.98;;;6.70;99.90;;;;;;5032445;28;20017;-85
2021/11/16 11:09:22;;;;;;;30.50;14.20;;;6.70;99.90;;;;;;5032395;28;20026;-86
2021/11/16 11:11:51;;;;;;;29.33;14.45;;;6.70;99.90;;;;;;5030132;28;20405;-86
2021/11/16 11:14:37;;;;;;;30.20;14.02;;;6.70;99.90;;;;;;5031103;28;20346;-87
2021/11/16 11:17:10;;;;;;;27.75;13.40;;;6.70;99.90;;;;;;5044324;28;20052;-85
2021/11/16 11:19:39;;;;;;;26.08;12.65;;;6.70;99.90;;;;;;5033483;28;20366;-83
2021/11/16 11:22:27;;;;;;;24.85;12.43;;;6.70;99.90;;;;;;5045414;28;20440;-85
2021/11/16 11:25:36;;;;;;;25.00;12.70;;;6.70;99.90;;;;;;5032051;28;20079;-84
2021/11/16 11:28:11;;;;;;;22.67;11.98;;;6.60;99.90;;;;;;5021581;28;20021;-83
2021/11/16 11:30:39;;;;;;;25.02;12.40;;;6.60;99.90;;;;;;5042575;28;20025;-85
2021/11/16 11:33:06;;;;;;;24.80;12.40;;;6.60;99.90;;;;;;5034854;28;20049;-85
2021/11/16 11:35:32;;;;;;;24.60;11.57;;;6.60;99.90;;;;;;5029973;28;20021;-83
2021/11/16 11:38:11;;;;;;;24.13;13.25;;;6.60;99.90;;;;;;5034716;28;20040;-84
2021/11/16 11:40:40;;;;;;;25.38;12.38;;;6.60;99.90;;;;;;5042422;28;20108;-84
2021/11/16 11:43:26;;;;;;;26.17;12.57;;;6.60;99.90;;;;;;5035737;28;20022;-84
2021/11/16 11:45:52;;;;;;;24.95;13.13;;;6.60;99.90;;;;;;5014832;28;20470;-84
2021/11/16 11:48:22;;;;;;;25.90;13.07;;;6.60;99.90;;;;;;5038427;28;20082;-84
2021/11/16 11:51:15;;;;;;;22.38;11.80;;;6.60;99.90;;;;;;5056704;28;20071;-84
2021/11/16 11:53:42;;;;;;;24.95;11.55;;;6.60;99.90;;;;;;5053739;28;20048;-85
2021/11/16 11:56:15;;;;;;;23.83;11.88;;;6.60;99.90;;;;;;5031739;28;20466;-85
2021/11/16 11:58:42;;;;;;;;;;;6.60;99.90;;;;;;5042584;28;20031;-84
2021/11/16 12:01:15;;;;;;;20.48;10.43;;;6.60;99.90;;;;;;5039182;28;19927;-83
2021/11/16 12:03:46;;;;;;;23.45;11.90;;;6.60;99.90;;;;;;5024247;28;20362;-85
2021/11/16 12:06:13;;;;;;;24.13;11.82;;;6.60;99.90;;;;;;5051795;28;20029;-84
2021/11/16 12:08:41;;;;;;;24.73;12.35;;;6.60;99.90;;;;;;5025549;28;20029;-85
2021/11/16 12:11:11;;;;;;;25.35;12.30;;;6.60;99.90;;;;;;5045548;28;20025;-85
2021/11/16 12:13:39;;;;;;;23.42;11.95;;;6.50;99.90;;;;;;5034493;28;20113;-84
2021/11/16 12:16:12;;;;;;;25.38;12.57;;;6.50;99.90;;;;;;5041514;28;20484;-85
2021/11/16 12:18:42;;;;;;;21.83;11.18;;;6.50;99.90;;;;;;5062227;28;20145;-84
2021/11/16 12:21:29;;;;;;;23.00;11.40;;;6.50;99.90;;;;;;5049161;28;20028;-85
2021/11/16 12:24:04;;;;;;;23.58;10.88;;;6.50;99.90;;;;;;5045745;28;20029;-84
2021/11/16 12:26:33;;;;;;;22.48;10.70;;;6.50;99.90;;;;;;5044867;28;20113;-84
2021/11/16 12:29:30;;;;;;;25.48;12.20;;;6.50;99.90;;;;;;5059160;28;20040;-84
2021/11/16 12:32:30;;;;;;;22.98;11.07;;;6.60;99.90;;;;;;5039697;28;20484;-85
2021/11/16 12:35:13;;;;;;;24.48;11.80;;;6.60;99.90;;;;;;5036233;28;20493;-85
2021/11/16 12:37:46;;;;;;;21.15;10.85;;;6.60;99.90;;;;;;5051266;28;20511;-84
2021/11/16 12:40:30;;;;;;;22.83;11.60;;;6.60;99.90;;;;;;5041660;28;20138;-85
2021/11/16 12:43:25;;;;;;;22.30;11.30;;;6.60;99.90;;;;;;5042157;28;20132;-84
2021/11/16 12:46:00;;;;;;;23.15;10.88;;;6.60;99.90;;;;;;5038310;28;20027;-85
2021/11/16 12:48:57;;;;;;;34.03;13.90;;;6.60;99.90;;;;;;5041770;28;20030;-85
2021/11/16 12:51:33;;;;;;;33.63;14.05;;;6.60;99.90;;;;;;5050721;28;20040;-85
2021/11/16 12:54:05;;;;;;;30.73;13.65;;;6.60;99.90;;;;;;5044679;28;20033;-84
2021/11/16 12:56:43;;;;;;;28.38;13.13;;;6.60;99.90;;;;;;5034881;28;20049;-85
2021/11/16 12:59:29;;;;;;;25.48;12.45;;;6.60;99.90;;;;;;5035640;28;20024;-85
2021/11/16 13:02:02;;;;;;;26.00;12.23;;;6.60;99.90;;;;;;5019303;28;20057;-85
2021/11/16 13:04:51;;;;;;;23.75;12.30;;;6.60;99.90;;;;;;5031998;28;20028;-85
2021/11/16 13:07:41;;;;;;;28.80;13.57;;;6.60;99.90;;;;;;5035210;28;20021;-85
2021/11/16 13:10:07;;;;;;;24.73;11.52;;;6.60;99.90;;;;;;5034640;28;20616;-84
2021/11/16 13:12:37;;;;;;;24.83;11.52;;;6.60;99.90;;;;;;5036334;28;20029;-84
2021/11/16 13:15:21;;;;;;;26.80;12.07;;;6.60;99.90;;;;;;5034984;28;20029;-85
2021/11/16 13:18:07;;;;;;;27.38;13.95;;;6.60;99.90;;;;;;5034747;28;20017;-85
2021/11/16 13:20:44;;;;;;;25.60;13.32;;;6.50;99.90;;;;;;5034790;28;20021;-84